Time;durP1;ratioP1;P1;durP2;ratioP2;P2;SDS_P1;SDS_P2;PMS_P1;PMS_P2;Temp;Humidity;BMP_temperature;BMP_pressure;BME280_temperature;BME280_humidity;BME280_pressure;Samples;Min_cycle;Max_cycle;Signal;HPM_P1;HPM_P2
2023/04/03 06:30:15;;;;;;;4.63;2.30;;;5.20;96.00;;;;;;7493264;23;20108;31
2023/04/03 06:33:17;;;;;;;5.50;2.60;;;5.30;95.70;;;;;;6081579;29;20049;-76
2023/04/03 06:36:21;;;;;;;4.82;2.35;;;5.20;95.70;;;;;;6082827;29;20053;-77
2023/04/03 06:39:23;;;;;;;4.07;2.20;;;5.10;95.80;;;;;;6081405;29;20558;-75
2023/04/03 06:42:25;;;;;;;5.20;2.70;;;5.30;95.40;;;;;;6081900;29;20045;-74
2023/04/03 06:45:28;;;;;;;4.75;2.20;;;5.40;95.40;;;;;;6081908;29;20053;-75
2023/04/03 06:48:30;;;;;;;4.22;2.28;;;5.40;95.00;;;;;;6081693;29;20060;-77
2023/04/03 06:51:32;;;;;;;4.03;2.30;;;5.40;95.40;;;;;;6081937;29;20490;-78
2023/04/03 06:54:34;;;;;;;4.72;2.28;;;5.40;95.00;;;;;;6081557;29;20056;-76
2023/04/03 06:57:36;;;;;;;6.70;2.63;;;5.50;95.40;;;;;;6081422;29;20053;-76
2023/04/03 07:00:39;;;;;;;8.25;2.85;;;5.20;95.40;;;;;;6080639;29;20045;-76
2023/04/03 07:03:42;;;;;;;8.85;4.05;;;5.40;95.50;;;;;;6082340;29;20049;-77
2023/04/03 07:06:43;;;;;;;6.43;2.78;;;5.60;95.30;;;;;;6085789;29;20160;-75
2023/04/03 07:09:47;;;;;;;4.68;2.50;;;5.40;95.50;;;;;;6083293;29;20048;-76
2023/04/03 07:12:49;;;;;;;;;;;5.30;95.50;;;;;;6083135;29;20048;-76
2023/04/03 07:15:53;;;;;;;4.80;2.65;;;5.60;95.40;;;;;;6081711;29;20051;-75
2023/04/03 07:18:55;;;;;;;;;;;5.80;95.30;;;;;;6085631;29;20048;-76
2023/04/03 07:21:56;;;;;;;7.63;2.72;;;5.70;95.10;;;;;;6080902;29;20403;-78
2023/04/03 07:24:59;;;;;;;5.03;2.78;;;5.60;95.30;;;;;;6081161;29;20056;-74
2023/04/03 07:28:01;;;;;;;3.87;2.20;;;5.40;95.40;;;;;;6081021;29;20053;-76
2023/04/03 07:31:08;;;;;;;5.10;2.40;;;5.60;95.50;;;;;;6080687;29;20063;-77
2023/04/03 07:34:09;;;;;;;7.35;2.55;;;5.50;95.50;;;;;;6081128;29;20045;-77
2023/04/03 07:37:12;;;;;;;6.63;2.75;;;5.70;95.80;;;;;;6080795;29;20053;-77
2023/04/03 07:40:14;;;;;;;7.13;2.97;;;5.70;95.40;;;;;;6081160;29;20055;-76
2023/04/03 07:43:16;;;;;;;5.40;2.50;;;5.70;95.30;;;;;;6080841;29;20057;-76
2023/04/03 07:46:20;;;;;;;4.70;2.60;;;5.80;95.10;;;;;;6081051;29;20051;-75
2023/04/03 07:49:23;;;;;;;;;;;5.90;95.20;;;;;;6070014;29;20109;-74
2023/04/03 07:52:25;;;;;;;5.15;2.50;;;5.90;95.10;;;;;;6054697;29;19924;-78
2023/04/03 07:55:28;;;;;;;5.30;2.35;;;5.90;95.10;;;;;;6054472;29;20057;-75
2023/04/03 07:58:31;;;;;;;4.90;2.50;;;6.20;95.30;;;;;;6054211;29;20407;-76
2023/04/03 08:01:34;;;;;;;5.88;2.65;;;6.40;94.90;;;;;;6054017;29;20495;-77
2023/04/03 08:04:36;;;;;;;5.72;3.03;;;6.30;95.10;;;;;;6054338;29;20060;-77
2023/04/03 08:07:38;;;;;;;6.00;2.65;;;6.30;95.10;;;;;;6052106;29;20414;-75
2023/04/03 08:10:41;;;;;;;4.82;2.45;;;6.30;94.90;;;;;;6053976;29;20057;-75
2023/04/03 08:13:43;;;;;;;6.32;2.60;;;6.60;94.40;;;;;;6058864;29;20049;-76
2023/04/03 08:16:48;;;;;;;6.32;2.53;;;6.60;94.40;;;;;;6058713;29;20061;-77
2023/04/03 08:19:49;;;;;;;5.10;2.63;;;6.50;94.80;;;;;;6058774;29;20059;-79
2023/04/03 08:22:51;;;;;;;5.40;2.58;;;6.50;94.30;;;;;;6058506;29;20060;-76
2023/04/03 08:25:53;;;;;;;6.05;2.63;;;6.70;94.40;;;;;;6058997;29;20475;-78
2023/04/03 08:28:55;;;;;;;5.95;3.20;;;6.50;94.20;;;;;;6058410;29;20411;-76
2023/04/03 08:31:58;;;;;;;5.93;2.63;;;6.60;94.00;;;;;;6045524;29;20073;-76
2023/04/03 08:35:00;;;;;;;8.05;3.15;;;6.70;94.00;;;;;;6058248;29;20056;-75
2023/04/03 08:38:02;;;;;;;7.32;2.80;;;6.80;93.90;;;;;;6058034;29;20479;-76
2023/04/03 08:41:16;;;;;;;5.25;2.75;;;6.50;93.80;;;;;;6058258;29;20053;-77
2023/04/03 08:44:26;;;;;;;4.90;2.60;;;6.60;93.70;;;;;;6058453;29;20130;-75
2023/04/03 08:47:39;;;;;;;6.55;2.70;;;6.70;93.90;;;;;;6058797;29;20064;-77
2023/04/03 08:50:44;;;;;;;4.97;2.50;;;6.90;94.00;;;;;;6059921;29;20048;-78
2023/04/03 08:53:57;;;;;;;5.18;2.72;;;6.90;93.40;;;;;;6060348;29;20057;-77
2023/04/03 08:57:01;;;;;;;6.32;2.80;;;6.80;93.70;;;;;;6058179;29;20482;-77
2023/04/03 09:00:08;;;;;;;;;;;7.00;93.50;;;;;;6058383;29;20060;-77
2023/04/03 09:03:16;;;;;;;4.78;2.42;;;7.20;93.60;;;;;;6058164;29;19934;-77
2023/04/03 09:06:22;;;;;;;5.03;2.40;;;7.40;92.50;;;;;;6056842;29;20057;-77
2023/04/03 09:09:33;;;;;;;6.00;2.67;;;7.10;92.10;;;;;;6057829;29;20060;-78
2023/04/03 09:12:40;;;;;;;7.40;2.60;;;7.10;92.00;;;;;;6057377;29;20075;-78
2023/04/03 09:15:42;;;;;;;5.65;2.60;;;7.10;92.20;;;;;;6058592;29;20065;-75
2023/04/03 09:18:49;;;;;;;5.30;2.80;;;7.10;92.00;;;;;;6059536;29;20049;-75
2023/04/03 09:21:51;;;;;;;6.00;2.80;;;7.40;92.80;;;;;;6057640;29;20061;-76
2023/04/03 09:25:00;;;;;;;5.68;2.80;;;7.60;92.70;;;;;;6056930;29;20112;-78
2023/04/03 09:28:03;;;;;;;9.27;2.78;;;7.40;92.50;;;;;;6057156;29;20057;-76
2023/04/03 09:31:20;;;;;;;5.50;2.70;;;7.60;92.60;;;;;;6058964;29;20060;-77
2023/04/03 09:34:27;;;;;;;6.72;2.60;;;7.20;92.50;;;;;;6059081;29;20053;-79
2023/04/03 09:37:40;;;;;;;7.13;2.80;;;7.30;92.50;;;;;;6060085;29;20110;-79
2023/04/03 09:40:43;;;;;;;4.38;2.63;;;7.40;92.30;;;;;;6060350;29;20177;-80
2023/04/03 09:43:54;;;;;;;5.00;2.40;;;7.40;92.10;;;;;;6059944;29;20053;-80
2023/04/03 09:46:56;;;;;;;4.95;2.28;;;7.20;91.90;;;;;;6060033;29;20049;-77
2023/04/03 09:50:21;;;;;;;4.90;2.50;;;7.10;91.50;;;;;;6059739;29;20060;-77
2023/04/03 09:53:32;;;;;;;6.55;2.70;;;6.80;91.70;;;;;;6059699;29;20055;-80
2023/04/03 09:56:34;;;;;;;4.43;2.30;;;7.00;91.60;;;;;;6059413;29;20061;-76
2023/04/03 09:59:38;;;;;;;7.03;2.55;;;7.10;91.10;;;;;;6059518;29;20060;-80
2023/04/03 10:02:41;;;;;;;8.20;4.60;;;7.00;90.80;;;;;;6059367;29;20045;-77
2023/04/03 10:05:44;;;;;;;4.20;2.40;;;7.10;91.00;;;;;;6059978;29;20049;-79
2023/04/03 10:09:04;;;;;;;6.13;2.50;;;7.20;90.40;;;;;;6059415;29;20131;-79
2023/04/03 10:12:11;;;;;;;5.40;2.17;;;7.00;90.10;;;;;;6059002;29;20423;-80
2023/04/03 10:15:15;;;;;;;5.60;2.25;;;7.10;90.10;;;;;;6059209;29;20057;-80
2023/04/03 10:18:34;;;;;;;5.47;2.33;;;7.00;90.00;;;;;;6058932;29;20053;-78
2023/04/03 10:21:45;;;;;;;4.38;2.40;;;7.20;89.20;;;;;;6059106;29;20056;-79
2023/04/03 10:24:58;;;;;;;4.30;2.20;;;7.10;90.30;;;;;;6034891;29;20415;-77
2023/04/03 10:28:02;;;;;;;;;;;7.30;90.30;;;;;;6033118;29;20510;-81
2023/04/03 10:31:15;;;;;;;4.38;2.05;;;7.40;88.30;;;;;;6032584;29;20420;-76
2023/04/03 10:34:24;;;;;;;4.15;1.95;;;7.20;86.20;;;;;;6049440;29;20148;-79
2023/04/03 10:37:37;;;;;;;4.55;1.77;;;7.30;84.70;;;;;;6055145;29;20061;-78
2023/04/03 10:40:48;;;;;;;4.72;1.88;;;7.20;84.60;;;;;;6055598;29;20049;-79
2023/04/03 10:44:02;;;;;;;3.70;1.85;;;7.20;84.70;;;;;;6053302;29;20072;-77
2023/04/03 10:47:13;;;;;;;4.82;2.13;;;7.50;85.10;;;;;;6055254;29;20471;-76
2023/04/03 10:50:46;;;;;;;4.40;1.75;;;7.60;85.30;;;;;;6055301;29;20057;-78
2023/04/03 10:53:58;;;;;;;4.68;2.00;;;7.60;85.70;;;;;;6055277;29;20317;-80
2023/04/03 10:57:04;;;;;;;5.72;2.33;;;7.50;85.00;;;;;;6055273;29;20061;-77
2023/04/03 11:00:14;;;;;;;9.15;3.90;;;7.30;85.20;;;;;;6055150;29;20061;-79
2023/04/03 11:03:27;;;;;;;4.63;1.95;;;7.40;85.20;;;;;;6055132;29;20049;-78
2023/04/03 11:06:37;;;;;;;3.30;1.80;;;7.40;85.80;;;;;;6055588;29;20045;-79
2023/04/03 11:09:45;;;;;;;4.60;1.75;;;7.10;84.20;;;;;;6055272;29;20140;-76
2023/04/03 11:12:53;;;;;;;5.65;1.92;;;7.20;84.50;;;;;;6054545;29;20502;-77
2023/04/03 11:15:57;;;;;;;4.57;1.90;;;7.40;84.90;;;;;;6054788;29;20060;-78
2023/04/03 11:19:03;;;;;;;4.75;1.90;;;7.40;85.30;;;;;;6054715;29;20529;-77
2023/04/03 11:22:14;;;;;;;4.85;1.80;;;7.50;84.70;;;;;;6054576;29;20052;-79
2023/04/03 11:25:24;;;;;;;4.25;1.80;;;7.50;85.00;;;;;;6054720;29;20057;-79
2023/04/03 11:28:26;;;;;;;5.72;1.80;;;7.60;83.00;;;;;;6054358;29;20149;-78
2023/04/03 11:31:46;;;;;;;3.63;1.65;;;7.50;83.20;;;;;;6063363;29;20069;-77
2023/04/03 11:34:53;;;;;;;3.65;1.73;;;7.60;83.50;;;;;;6077328;29;20068;-77
2023/04/03 11:37:56;;;;;;;4.88;2.00;;;7.50;83.50;;;;;;6077429;29;20056;-76
2023/04/03 11:41:00;;;;;;;6.53;2.10;;;7.50;81.50;;;;;;6077388;29;20067;-78
2023/04/03 11:44:05;;;;;;;3.58;1.73;;;7.30;81.90;;;;;;6077712;29;20052;-77
2023/04/03 11:47:08;;;;;;;3.70;1.67;;;7.50;82.00;;;;;;6077153;29;20057;-78
2023/04/03 11:50:42;;;;;;;5.50;2.00;;;7.70;81.50;;;;;;6077328;29;20051;-76
2023/04/03 11:53:44;;;;;;;4.78;1.88;;;7.80;81.30;;;;;;6079707;29;20467;-77
2023/04/03 11:56:47;;;;;;;3.65;1.73;;;7.80;82.40;;;;;;6082262;29;20518;-78
2023/04/03 11:59:49;;;;;;;3.65;1.88;;;7.80;82.90;;;;;;6082083;29;20059;-79
2023/04/03 12:02:51;;;;;;;4.43;1.98;;;7.80;82.70;;;;;;6078472;29;20068;-78
2023/04/03 12:05:55;;;;;;;4.10;1.65;;;7.90;83.50;;;;;;6076887;29;20055;-78
2023/04/03 12:08:57;;;;;;;5.60;1.65;;;7.70;80.30;;;;;;6076780;29;20474;-76
2023/04/03 12:12:23;;;;;;;4.18;1.65;;;7.50;79.60;;;;;;6077113;29;20083;-78
2023/04/03 12:15:45;;;;;;;5.43;1.80;;;7.60;81.10;;;;;;6078511;29;20055;-77
2023/04/03 12:18:59;;;;;;;3.50;1.70;;;7.90;80.20;;;;;;6077509;29;20056;-79
2023/04/03 12:22:09;;;;;;;3.88;1.80;;;8.00;80.30;;;;;;6080584;29;20486;-77
2023/04/03 12:25:49;;;;;;;8.90;2.10;;;7.80;80.00;;;;;;6081315;29;20269;-78
2023/04/03 12:28:54;;;;;;;4.35;2.00;;;7.70;78.90;;;;;;6080820;29;20506;-78
2023/04/03 12:32:12;;;;;;;4.32;1.92;;;7.50;79.70;;;;;;6080375;29;20064;-78
2023/04/03 12:35:27;;;;;;;3.88;1.75;;;7.80;78.70;;;;;;6057145;29;20053;-77
2023/04/03 12:38:50;;;;;;;3.80;1.60;;;7.90;78.80;;;;;;6057084;29;20104;-77
2023/04/03 12:42:05;;;;;;;5.03;1.80;;;7.90;79.60;;;;;;6057454;29;20057;-78
2023/04/03 12:45:18;;;;;;;6.22;1.88;;;7.80;80.20;;;;;;6057154;29;20399;-77
2023/04/03 12:48:26;;;;;;;3.45;1.58;;;7.70;80.00;;;;;;6057191;29;20053;-78
2023/04/03 12:51:38;;;;;;;4.68;1.73;;;7.70;80.00;;;;;;6057395;29;20049;-78
2023/04/03 12:54:41;;;;;;;5.43;1.80;;;7.80;79.60;;;;;;6057145;29;20132;-79
2023/04/03 12:57:43;;;;;;;3.83;1.70;;;8.00;78.40;;;;;;6056525;29;20049;-78
2023/04/03 13:00:46;;;;;;;4.88;1.52;;;7.90;77.40;;;;;;6060087;29;20506;-78
2023/04/03 13:03:53;;;;;;;4.78;1.80;;;8.20;78.20;;;;;;6061302;29;20503;-78
2023/04/03 13:06:56;;;;;;;4.65;1.90;;;8.00;76.80;;;;;;6061025;29;20048;-78
2023/04/03 13:10:15;;;;;;;4.93;1.95;;;8.20;76.40;;;;;;6060859;29;20060;-80
2023/04/03 13:13:17;;;;;;;5.47;1.83;;;7.90;77.00;;;;;;6061171;29;20056;-76
2023/04/03 13:16:20;;;;;;;4.20;1.67;;;7.90;77.00;;;;;;6061195;29;20518;-76
2023/04/03 13:19:24;;;;;;;3.92;1.77;;;8.00;76.50;;;;;;6061294;29;20502;-79
2023/04/03 13:22:32;;;;;;;3.72;1.70;;;8.10;76.70;;;;;;6061066;29;20060;-79
2023/04/03 13:25:36;;;;;;;5.18;1.92;;;7.80;77.40;;;;;;6061134;29;20134;-78
2023/04/03 13:28:40;;;;;;;5.47;1.92;;;7.80;77.50;;;;;;6060672;29;20057;-76
2023/04/03 13:31:44;;;;;;;4.78;2.10;;;7.80;77.50;;;;;;6049561;29;20057;-77
2023/04/03 13:34:46;;;;;;;5.07;1.92;;;7.90;77.10;;;;;;6058443;29;20063;-78
2023/04/03 13:37:56;;;;;;;3.60;1.60;;;7.90;76.80;;;;;;6060800;29;20061;-78
2023/04/03 13:41:02;;;;;;;3.33;1.48;;;8.10;77.00;;;;;;6060462;29;20056;-79
2023/04/03 13:44:30;;;;;;;6.38;1.80;;;8.30;76.60;;;;;;6060372;29;20411;-77
2023/04/03 13:47:40;;;;;;;5.82;1.98;;;8.40;75.70;;;;;;6060465;29;20056;-76
2023/04/03 13:51:00;;;;;;;6.72;2.75;;;8.40;76.20;;;;;;6060041;29;20514;-77
2023/04/03 13:54:17;;;;;;;5.20;1.70;;;8.50;76.00;;;;;;6059910;29;20048;-79
2023/04/03 13:57:19;;;;;;;4.05;1.70;;;8.50;75.60;;;;;;6060138;29;20139;-80
2023/04/03 14:00:32;;;;;;;4.05;1.67;;;8.70;75.50;;;;;;6059997;29;20045;-79
2023/04/03 14:03:43;;;;;;;4.35;1.90;;;8.40;75.30;;;;;;6060295;29;20048;-79
2023/04/03 14:06:47;;;;;;;3.88;1.90;;;8.50;75.40;;;;;;6059882;29;20097;-78
2023/04/03 14:09:50;;;;;;;4.13;1.85;;;8.60;75.40;;;;;;6059898;29;20053;-77
2023/04/03 14:12:52;;;;;;;5.23;2.00;;;8.80;74.70;;;;;;6058568;29;20052;-76
2023/04/03 14:15:54;;;;;;;3.78;1.77;;;8.60;73.60;;;;;;6058572;29;20664;-77
2023/04/03 14:18:57;;;;;;;4.65;2.13;;;8.70;74.80;;;;;;6059448;29;20429;-78
2023/04/03 14:22:00;;;;;;;;;;;8.40;74.00;;;;;;6059904;29;20064;-79
2023/04/03 14:25:03;;;;;;;3.95;1.70;;;8.60;73.90;;;;;;6059335;29;19923;-78
2023/04/03 14:28:17;;;;;;;3.88;1.77;;;8.50;71.70;;;;;;6059425;29;20181;-79
2023/04/03 14:31:20;;;;;;;4.60;1.77;;;8.40;72.40;;;;;;6059153;29;20491;-79
2023/04/03 14:34:23;;;;;;;3.88;1.70;;;8.40;72.90;;;;;;6060267;29;20139;-77
2023/04/03 14:37:28;;;;;;;6.53;2.15;;;8.30;72.90;;;;;;6060815;29;20060;-78
2023/04/03 14:40:30;;;;;;;5.60;2.10;;;8.30;72.80;;;;;;6061418;29;20065;-79
2023/04/03 14:43:32;;;;;;;4.70;1.92;;;8.30;72.90;;;;;;6061422;29;20411;-80
2023/04/03 14:46:37;;;;;;;4.05;1.90;;;8.30;72.10;;;;;;6061605;29;20076;-76
2023/04/03 14:49:41;;;;;;;6.25;2.10;;;8.20;72.40;;;;;;6060083;29;20501;-79
2023/04/03 14:52:45;;;;;;;5.47;1.83;;;8.20;71.90;;;;;;6059858;29;20049;-78
2023/04/03 14:55:48;;;;;;;6.40;1.80;;;8.30;72.50;;;;;;6060089;29;20443;-77
2023/04/03 14:58:51;;;;;;;5.38;1.80;;;8.40;72.30;;;;;;6060558;29;20140;-78
2023/04/03 15:01:53;;;;;;;3.88;1.80;;;8.30;73.10;;;;;;6060470;29;20100;-78
2023/04/03 15:04:58;;;;;;;4.20;1.90;;;8.30;72.50;;;;;;6058967;29;20048;-78
2023/04/03 15:08:00;;;;;;;6.05;2.20;;;8.10;72.70;;;;;;6059218;29;20065;-77
2023/04/03 15:11:02;;;;;;;4.75;2.00;;;8.10;73.20;;;;;;6058777;29;20045;-77
2023/04/03 15:14:04;;;;;;;4.65;1.95;;;8.10;73.20;;;;;;6058091;29;20048;-76
2023/04/03 15:17:07;;;;;;;4.72;1.77;;;8.30;72.50;;;;;;6058431;29;20052;-78
2023/04/03 15:20:15;;;;;;;5.03;2.08;;;8.30;70.50;;;;;;6057392;29;20053;-77
2023/04/03 15:23:18;;;;;;;4.93;2.22;;;8.30;70.80;;;;;;6058472;29;20053;-76
2023/04/03 15:26:20;;;;;;;4.43;1.90;;;8.60;71.50;;;;;;6059560;29;20059;-77
2023/04/03 15:29:22;;;;;;;4.65;1.90;;;8.70;71.80;;;;;;6058106;29;20049;-76
2023/04/03 15:32:24;;;;;;;7.45;2.13;;;8.80;72.40;;;;;;6057634;29;20057;-78
2023/04/03 15:35:27;;;;;;;4.13;1.80;;;8.80;71.90;;;;;;6057543;29;20049;-76
2023/04/03 15:38:29;;;;;;;3.17;1.60;;;9.00;71.40;;;;;;6057327;29;20059;-79
2023/04/03 15:41:31;;;;;;;4.10;1.95;;;9.10;70.50;;;;;;6057730;29;20052;-79
2023/04/03 15:44:34;;;;;;;3.95;1.75;;;9.60;68.70;;;;;;6057498;29;20060;-79
2023/04/03 15:47:36;;;;;;;3.37;1.70;;;11.20;66.00;;;;;;6054716;29;20432;-78
2023/04/03 15:50:40;;;;;;;5.25;1.80;;;10.90;65.10;;;;;;6056506;29;20053;-78
2023/04/03 15:53:43;;;;;;;4.10;1.58;;;10.30;65.00;;;;;;6053257;29;20052;-78
2023/04/03 15:56:45;;;;;;;4.18;1.65;;;9.90;66.60;;;;;;6056259;29;20081;-71
2023/04/03 15:59:47;;;;;;;5.32;1.65;;;10.00;72.00;;;;;;6048194;29;20056;-76
2023/04/03 16:02:54;;;;;;;4.18;1.90;;;9.80;67.10;;;;;;6054256;29;20060;-76
2023/04/03 16:05:57;;;;;;;4.57;1.90;;;9.70;66.70;;;;;;6054315;29;20067;-77
2023/04/03 16:09:00;;;;;;;5.00;1.80;;;9.00;66.10;;;;;;6051903;29;20522;-78
2023/04/03 16:12:02;;;;;;;5.35;1.80;;;8.80;66.40;;;;;;6054506;29;20459;-79
2023/04/03 16:15:06;;;;;;;4.05;1.73;;;8.80;66.80;;;;;;6054578;29;20136;-77
2023/04/03 16:18:08;;;;;;;;;;;8.80;66.80;;;;;;6054445;29;20497;-74
2023/04/03 16:21:13;;;;;;;4.68;1.98;;;8.80;66.30;;;;;;6054038;29;19928;-77
2023/04/03 16:24:15;;;;;;;3.70;1.70;;;8.90;66.20;;;;;;6053899;29;20116;-78
2023/04/03 16:27:17;;;;;;;3.53;1.60;;;8.60;66.40;;;;;;6054258;29;20053;-75
2023/04/03 16:30:19;;;;;;;4.68;1.70;;;8.70;67.80;;;;;;6053371;29;20057;-77
2023/04/03 16:33:21;;;;;;;3.47;1.60;;;8.70;67.80;;;;;;6077060;29;20494;-79
2023/04/03 16:36:25;;;;;;;5.20;1.90;;;8.90;67.60;;;;;;6080336;29;20075;-78
2023/04/03 16:39:27;;;;;;;5.13;1.98;;;8.80;67.20;;;;;;6078927;29;20411;-77
2023/04/03 16:42:29;;;;;;;5.22;1.92;;;9.00;67.10;;;;;;6080700;29;20434;-78
2023/04/03 16:45:31;;;;;;;6.07;1.83;;;9.00;67.50;;;;;;6080164;29;20410;-78
2023/04/03 16:48:33;;;;;;;5.43;2.13;;;8.60;66.20;;;;;;6081938;29;20059;-76
2023/04/03 16:51:36;;;;;;;6.45;1.80;;;8.70;65.90;;;;;;6080240;29;20056;-77
2023/04/03 16:54:41;;;;;;;6.72;2.20;;;8.60;65.70;;;;;;6082361;29;20526;-78
2023/04/03 16:57:43;;;;;;;4.47;1.73;;;8.90;66.20;;;;;;6081416;29;20406;-78
2023/04/03 17:00:46;;;;;;;4.97;1.77;;;8.80;65.80;;;;;;6080837;29;20075;-76
2023/04/03 17:03:53;;;;;;;4.53;1.90;;;8.60;65.00;;;;;;6081354;29;20085;-76
2023/04/03 17:06:56;;;;;;;5.47;2.00;;;8.50;66.40;;;;;;6073004;29;20049;-79
2023/04/03 17:09:58;;;;;;;3.80;1.77;;;8.50;66.90;;;;;;6079947;29;20403;-77
2023/04/03 17:13:00;;;;;;;5.07;2.15;;;8.20;67.90;;;;;;6072469;29;20060;-77
2023/04/03 17:16:07;;;;;;;6.00;2.03;;;8.20;68.10;;;;;;6081609;29;20052;-77
2023/04/03 17:19:09;;;;;;;5.47;2.10;;;8.20;68.30;;;;;;6059460;29;20060;-78
2023/04/03 17:22:12;;;;;;;4.55;1.95;;;8.00;68.90;;;;;;6058110;29;20152;-79
2023/04/03 17:25:14;;;;;;;3.80;1.98;;;7.80;69.40;;;;;;6080133;29;20143;-80
2023/04/03 17:28:16;;;;;;;3.67;1.65;;;7.70;70.10;;;;;;6084665;29;20052;-80
2023/04/03 17:31:18;;;;;;;4.50;1.80;;;7.70;69.50;;;;;;6075021;29;20069;-80
2023/04/03 17:34:20;;;;;;;4.85;1.85;;;7.50;68.60;;;;;;6059241;29;20418;-79
2023/04/03 17:37:24;;;;;;;5.10;2.10;;;7.60;68.70;;;;;;6057054;29;20368;-76
2023/04/03 17:40:26;;;;;;;8.40;4.00;;;7.40;68.80;;;;;;6055370;29;20128;-76
2023/04/03 17:43:29;;;;;;;4.55;1.88;;;7.50;68.80;;;;;;6055909;29;20068;-78
2023/04/03 17:46:31;;;;;;;3.90;1.70;;;7.40;68.90;;;;;;6052120;29;20495;-78
2023/04/03 17:49:33;;;;;;;4.15;1.85;;;7.30;69.60;;;;;;6054797;29;20061;-80
2023/04/03 17:52:36;;;;;;;4.80;1.77;;;7.20;68.80;;;;;;6047694;29;20056;-79
2023/04/03 17:55:38;;;;;;;5.57;1.98;;;7.30;69.20;;;;;;6056907;29;20499;-79
2023/04/03 17:58:41;;;;;;;4.50;1.83;;;7.20;70.00;;;;;;6054940;29;20060;-78
2023/04/03 18:01:46;;;;;;;5.03;1.80;;;7.10;69.80;;;;;;6056732;29;20053;-78
2023/04/03 18:04:51;;;;;;;4.57;1.70;;;7.00;70.20;;;;;;6056099;29;20071;-79
2023/04/03 18:07:54;;;;;;;5.05;1.60;;;7.00;70.80;;;;;;6056317;29;20056;-80
2023/04/03 18:10:56;;;;;;;3.85;1.73;;;7.00;70.90;;;;;;6056771;29;20111;-79
2023/04/03 18:14:02;;;;;;;5.75;1.92;;;6.90;70.50;;;;;;6055994;29;20049;-81
2023/04/03 18:17:04;;;;;;;5.95;1.88;;;6.90;71.00;;;;;;6053924;29;20060;-83
2023/04/03 18:20:08;;;;;;;4.50;2.00;;;6.90;71.40;;;;;;6057175;29;20431;-80
2023/04/03 18:23:11;;;;;;;4.45;1.88;;;6.70;71.70;;;;;;6057297;29;20112;-80
2023/04/03 18:26:15;;;;;;;4.72;2.10;;;6.70;72.30;;;;;;6059441;29;20053;-81
2023/04/03 18:29:17;;;;;;;;;;;6.60;72.00;;;;;;6057548;29;20053;-82
2023/04/03 18:32:21;;;;;;;5.78;2.75;;;6.60;72.60;;;;;;6072166;29;19936;-82
2023/04/03 18:35:22;;;;;;;;;;;6.60;72.10;;;;;;6080028;29;20052;-79
2023/04/03 18:38:26;;;;;;;7.00;2.83;;;6.70;72.60;;;;;;6076806;29;20010;-81
2023/04/03 18:41:30;;;;;;;;;;;6.90;72.50;;;;;;6078456;29;20056;-79
2023/04/03 18:44:33;;;;;;;5.93;2.80;;;7.00;72.90;;;;;;6077400;29;19924;-81
2023/04/03 18:47:35;;;;;;;5.70;2.97;;;7.00;73.00;;;;;;6078193;29;20044;-79
2023/04/03 18:50:37;;;;;;;6.43;2.70;;;6.90;72.80;;;;;;6079009;29;20059;-79
2023/04/03 18:53:41;;;;;;;7.00;3.20;;;6.90;75.00;;;;;;6072955;29;20041;-75
2023/04/03 18:56:43;;;;;;;8.75;3.38;;;7.10;74.10;;;;;;6068394;29;20060;-77
2023/04/03 18:59:45;;;;;;;6.30;2.83;;;7.10;73.80;;;;;;6073761;29;20491;-75
2023/04/03 19:02:49;;;;;;;5.93;2.53;;;6.90;72.60;;;;;;6070771;29;20495;-74
2023/04/03 19:05:51;;;;;;;5.28;2.22;;;6.80;72.80;;;;;;6074190;29;20052;-78
2023/04/03 19:08:54;;;;;;;5.20;2.33;;;6.60;72.70;;;;;;6076874;29;20055;-76
2023/04/03 19:11:56;;;;;;;6.25;2.20;;;6.50;73.50;;;;;;6078348;29;20056;-75
2023/04/03 19:14:58;;;;;;;7.18;2.65;;;6.50;73.70;;;;;;6078395;29;20056;-76
2023/04/03 19:18:00;;;;;;;6.43;2.63;;;6.50;75.10;;;;;;6077405;29;20048;-78
2023/04/03 19:21:02;;;;;;;4.90;2.63;;;6.40;74.90;;;;;;6077713;29;20063;-78
2023/04/03 19:24:07;;;;;;;4.68;2.00;;;6.30;74.40;;;;;;6077546;29;20053;-75
2023/04/03 19:27:09;;;;;;;5.18;2.63;;;6.50;74.50;;;;;;6077408;29;20053;-77
2023/04/03 19:30:13;;;;;;;4.28;2.00;;;6.40;74.40;;;;;;6078385;29;20533;-75
2023/04/03 19:33:14;;;;;;;4.35;2.08;;;6.40;74.60;;;;;;6060099;29;20057;-79
2023/04/03 19:36:17;;;;;;;5.18;2.20;;;6.40;74.30;;;;;;6054614;29;20052;-79
2023/04/03 19:39:20;;;;;;;4.82;2.55;;;6.30;74.50;;;;;;6054669;29;20089;-79
2023/04/03 19:42:23;;;;;;;5.47;2.47;;;6.40;75.10;;;;;;6055264;29;20509;-77
2023/04/03 19:45:26;;;;;;;4.40;2.13;;;6.20;74.90;;;;;;6053081;29;20057;-77
2023/04/03 19:48:28;;;;;;;5.25;2.22;;;6.20;75.40;;;;;;6053146;29;20558;-77
2023/04/03 19:51:30;;;;;;;5.70;2.10;;;6.10;75.60;;;;;;6054415;29;20736;-77
2023/04/03 19:54:33;;;;;;;5.82;2.20;;;6.10;75.50;;;;;;6054208;29;20057;-77
2023/04/03 19:57:35;;;;;;;5.60;2.13;;;6.00;75.80;;;;;;6052677;29;20060;-77
2023/04/03 20:00:37;;;;;;;6.05;2.55;;;6.10;75.80;;;;;;6049462;29;20060;-78
2023/04/03 20:03:39;;;;;;;4.72;2.20;;;6.10;75.80;;;;;;6032380;29;20058;-78
2023/04/03 20:06:41;;;;;;;4.53;2.15;;;6.00;75.60;;;;;;6037310;29;20049;-79
2023/04/03 20:09:44;;;;;;;6.70;2.40;;;6.00;75.70;;;;;;6053239;29;20053;-79
2023/04/03 20:12:46;;;;;;;6.97;2.28;;;6.00;76.60;;;;;;6054461;29;20495;-78
2023/04/03 20:15:48;;;;;;;4.93;2.13;;;6.00;76.20;;;;;;6054687;29;20052;-78
2023/04/03 20:18:50;;;;;;;5.35;2.20;;;6.10;75.60;;;;;;6054076;29;20053;-79
2023/04/03 20:21:52;;;;;;;4.32;2.25;;;6.00;76.00;;;;;;6055548;29;20059;-78
2023/04/03 20:24:56;;;;;;;5.27;2.00;;;5.90;75.40;;;;;;6054637;29;20061;-76
2023/04/03 20:27:58;;;;;;;5.90;2.20;;;5.90;76.80;;;;;;6054115;29;20049;-77
2023/04/03 20:31:01;;;;;;;5.10;2.03;;;6.10;75.80;;;;;;6059866;29;20060;-80
2023/04/03 20:34:03;;;;;;;5.00;2.05;;;6.00;75.60;;;;;;6071020;29;20521;-78
2023/04/03 20:37:05;;;;;;;5.20;2.20;;;5.80;76.40;;;;;;6077742;29;20056;-79
2023/04/03 20:40:10;;;;;;;5.28;2.20;;;5.90;76.90;;;;;;6077178;29;20159;-77
2023/04/03 20:43:13;;;;;;;4.35;1.73;;;5.80;76.30;;;;;;6076328;29;20160;-78
2023/04/03 20:46:18;;;;;;;5.20;2.10;;;5.70;76.30;;;;;;6078306;29;20505;-78
2023/04/03 20:49:20;;;;;;;4.80;2.17;;;5.50;77.00;;;;;;6079411;29;20049;-78
2023/04/03 20:52:22;;;;;;;7.10;2.03;;;5.40;77.10;;;;;;6077248;29;20048;-76
2023/04/03 20:55:25;;;;;;;4.93;1.92;;;5.50;77.10;;;;;;6080590;29;20057;-79
2023/04/03 20:58:31;;;;;;;7.20;2.00;;;5.60;76.70;;;;;;6080965;29;20056;-78
2023/04/03 21:01:33;;;;;;;4.43;2.03;;;5.20;77.10;;;;;;6079353;29;20073;-80
2023/04/03 21:04:44;;;;;;;5.70;2.10;;;5.20;77.50;;;;;;6080435;29;20059;-78
2023/04/03 21:08:41;;;;;;;6.65;2.15;;;5.20;78.30;;;;;;6078477;29;20458;-77
2023/04/03 21:12:39;;;;;;;5.25;2.22;;;4.90;78.50;;;;;;6078947;29;20049;-77
2023/04/03 21:15:47;;;;;;;5.95;2.25;;;5.10;79.10;;;;;;6080090;29;20479;-78
2023/04/03 21:19:05;;;;;;;7.57;2.42;;;4.90;79.60;;;;;;6080350;29;20049;-78
2023/04/03 21:22:06;;;;;;;5.00;2.20;;;5.10;79.30;;;;;;6084227;29;20049;-76
2023/04/03 21:25:09;;;;;;;5.50;2.47;;;5.00;79.10;;;;;;6084182;29;20501;-78
2023/04/03 21:28:11;;;;;;;4.97;2.10;;;4.90;79.60;;;;;;6084030;29;20064;-79
2023/04/03 21:31:13;;;;;;;5.72;2.05;;;4.90;79.50;;;;;;6082556;29;20061;-78
2023/04/03 21:34:18;;;;;;;4.60;1.95;;;5.10;79.10;;;;;;6060346;29;20049;-77
2023/04/03 21:37:20;;;;;;;5.82;2.30;;;5.00;79.10;;;;;;6059823;29;20136;-76
2023/04/03 21:40:22;;;;;;;5.88;2.40;;;4.90;78.90;;;;;;6060379;29;20144;-77
2023/04/03 21:43:24;;;;;;;5.15;2.35;;;4.60;79.30;;;;;;6072612;29;20048;-77
2023/04/03 21:46:26;;;;;;;5.22;2.30;;;4.50;79.70;;;;;;6062142;29;20616;-78
2023/04/03 21:49:29;;;;;;;6.47;2.78;;;4.50;80.00;;;;;;6083483;29;20494;-78
2023/04/03 21:52:31;;;;;;;4.95;2.30;;;4.40;80.00;;;;;;6073472;29;20532;-77
2023/04/03 21:55:33;;;;;;;5.25;2.15;;;4.40;80.30;;;;;;6059898;29;20503;-77
2023/04/03 21:58:35;;;;;;;5.97;2.03;;;4.50;80.20;;;;;;6059226;29;20049;-75
